メインページ
METAR-TAF:

METAR-TAF

空港 :

ナタール, リオグランデ・ド・ノルテ州, ブラジル

緯度: 05-46-05S, 経度: 035-22-34W, 海抜: 88m

現時点の気象観測

当レポートは1時間12分前の19:00(UTC)に作成
南/南東の風 12kt
気温 29°C
湿度 66%
気圧 1012 hPa
視程10km以上
高度3300ftの雲は散在している

METAR: SBSG 161900Z 15012KT 9999 SCT033 29/22 Q1012

時間: 17:12 (20:12 UTC)

予報

当レポートは4時間12分前の16:00(UTC)に作成
予報は16日の 18時(UTC)から 17日の 18時(UTC)まで有効
南/南東の風 14kt
視程10km以上
高度2500ftの雲は散在している
16日の 21時(UTC)から 16日の 23時(UTC)まで徐々に
の風 7kt
17日の 04時(UTC)から 17日の 05時(UTC)まで徐々に
南/南西の風 4kt
17日の 10時(UTC)から 17日の 12時(UTC)まで徐々に
南/南東の風 16kt
高度2200ftの千切れ雲あり
17日の 15時(UTC)から 17日の 16時(UTC)まで徐々に
高度3000ftの雲は散在している

TAF: SBSG 161600Z 1618/1718 16014KT 9999 SCT025 TN23/1708Z TX31/1715Z BECMG 1621/1623 17007KT BECMG 1704/1705 21004KT BECMG 1710/1712 15016KT BKN022 BECMG 1715/1716 SCT030 RMK PEU

4,000以上の空港の気象観測と天気予報(METAR報とTAF報)

利用可能な観測所は地図上に黄色い丸と赤い丸で示す。

丸の上にカーソルを重ねると観測所名を参照できる。

次にクリックすると気象観測と天気予報を参照できる。

マップの切り替え:黒色「×」印の緑ボタンをクリックして拡大、「-」印の緑ボタンをクリックして縮小、緑色の三角印をクリックして隣りの地図に切り替え


METAR-TAF: